Terminal Aerodrome Forecast
Issued by NWS

Home | Current Version | Previous Version | Graphics & Text | Print | Product List | Glossary On
Versions: 1 2 3 4 5 6 7 8 9 10 11 12 13 14 15 16 17 18 19 20 21 22 23 24 25 26
422
FTUS43 KICT 270229 AAB
TAFHUT
TAF AMD
KHUT 270229Z 2702/2724 03013G20KT 6SM SHRA VCTS OVC008CB
      TEMPO 2702/2706 4SM TSRA SCT007 OVC025CB
     FM270600 01012KT 4SM BR VCSH OVC005
     FM271500 36009KT P6SM SCT020=

USA.gov is the U.S. government's official web portal to all federal, state and local government web resources and services.